Terminal Aerodrome Forecast
Issued by NWS Cleveland, OH

Home | Current Version | Previous Version | Graphics & Text | Print | Product List | Glossary On
Versions: 1 2 3 4 5 6 7 8 9 10 11 12
000
FTUS41 KCLE 252330
TAFMFD
TAF
KMFD 252330Z 2600/2624 28005KT P6SM BKN250
     FM261000 VRB03KT 6SM BR SKC
      TEMPO 2610/2613 5SM BR
     FM261500 02007KT P6SM SCT035=

USA.gov is the U.S. government's official web portal to all federal, state and local government web resources and services.